Time;durP1;ratioP1;P1;durP2;ratioP2;P2;SDS_P1;SDS_P2;PMS_P1;PMS_P2;Temp;Humidity;BMP_temperature;BMP_pressure;BME280_temperature;BME280_humidity;BME280_pressure;Samples;Min_cycle;Max_cycle;Signal;HPM_P1;HPM_P2
2022/10/30 00:00:15;;;;;;;39.57;16.67;;;14.40;99.90;;;;;;20917840;28;20291;-70
2022/10/30 00:10:17;;;;;;;79.60;24.23;;;14.40;99.90;;;;;;20917122;28;20246;-70
2022/10/30 00:20:19;;;;;;;87.27;20.07;;;14.40;99.90;;;;;;20916353;28;20211;-71
2022/10/30 00:30:20;;;;;;;64.53;21.03;;;14.40;99.90;;;;;;20915429;28;20235;-69
2022/10/30 00:40:23;;;;;;;98.13;30.07;;;14.40;99.90;;;;;;20915174;28;20258;-70
2022/10/30 00:50:29;;;;;;;69.63;23.90;;;14.30;99.90;;;;;;20914328;28;20234;-70
2022/10/30 01:00:31;;;;;;;36.23;12.00;;;14.30;99.90;;;;;;20913562;28;20215;-72
2022/10/30 01:10:32;;;;;;;153.03;13.97;;;14.30;99.90;;;;;;20913059;28;20247;-72
2022/10/30 01:20:49;;;;;;;112.30;13.33;;;14.30;99.90;;;;;;20912619;28;20680;-72
2022/10/30 01:31:02;;;;;;;189.70;14.90;;;14.20;99.90;;;;;;20912097;28;20253;-72
2022/10/30 01:41:04;;;;;;;18.60;11.00;;;14.10;99.90;;;;;;20912038;28;20261;-72
2022/10/30 01:51:08;;;;;;;39.47;11.30;;;14.10;99.90;;;;;;20911302;28;20235;-72
2022/10/30 02:01:11;;;;;;;47.83;11.87;;;14.10;99.90;;;;;;20911121;28;20220;-70
2022/10/30 02:11:13;;;;;;;67.63;10.83;;;14.10;99.90;;;;;;20909574;28;20245;-72
2022/10/30 02:21:15;;;;;;;57.00;12.50;;;14.10;99.90;;;;;;20909198;28;20212;-72
2022/10/30 02:31:18;;;;;;;55.97;11.00;;;14.00;99.90;;;;;;20923879;28;20264;-72
2022/10/30 02:41:23;;;;;;;22.23;9.10;;;14.00;99.90;;;;;;20924657;28;20269;-72
2022/10/30 02:51:25;;;;;;;21.47;9.00;;;14.10;99.90;;;;;;20923345;28;20257;-72
2022/10/30 03:01:26;;;;;;;11.10;8.73;;;14.10;99.90;;;;;;20922694;28;20203;-72
2022/10/30 03:11:28;;;;;;;22.43;8.60;;;14.10;99.90;;;;;;20922019;28;20233;-72
2022/10/30 03:21:30;;;;;;;46.53;10.17;;;14.10;99.90;;;;;;20920865;28;20214;-72
2022/10/30 03:31:32;;;;;;;113.47;9.47;;;14.00;99.90;;;;;;20920053;28;20242;-72
2022/10/30 03:41:34;;;;;;;23.60;7.27;;;13.80;99.90;;;;;;20919157;28;20253;-70
2022/10/30 03:51:35;;;;;;;29.40;9.07;;;13.80;99.90;;;;;;20918930;28;20236;-71
2022/10/30 04:01:37;;;;;;;163.33;10.53;;;13.80;99.90;;;;;;20917607;28;20208;-72
2022/10/30 04:11:39;;;;;;;31.77;9.13;;;13.70;99.90;;;;;;20917122;28;20235;-72
2022/10/30 04:21:42;;;;;;;52.87;8.87;;;13.70;99.90;;;;;;20916784;28;20214;-72
2022/10/30 04:31:44;;;;;;;31.47;8.47;;;13.70;99.90;;;;;;20915381;28;20236;-72
2022/10/30 04:41:45;;;;;;;49.37;8.23;;;13.60;99.90;;;;;;20914891;28;20246;-73
2022/10/30 04:51:47;;;;;;;43.57;8.13;;;13.60;99.90;;;;;;20913830;28;20766;-70
2022/10/30 05:01:49;;;;;;;41.47;8.03;;;13.60;99.90;;;;;;20913224;28;20228;-70
2022/10/30 05:11:51;;;;;;;26.77;9.00;;;13.60;99.90;;;;;;20912955;28;20702;-71
2022/10/30 05:21:58;;;;;;;60.80;8.37;;;13.70;99.90;;;;;;20912819;28;20210;-70
2022/10/30 05:32:00;;;;;;;33.47;8.03;;;13.60;99.90;;;;;;20912163;28;20236;-70
2022/10/30 05:42:02;;;;;;;35.17;6.90;;;13.60;99.90;;;;;;20911608;28;20713;-71
2022/10/30 05:52:04;;;;;;;39.93;7.40;;;13.60;99.90;;;;;;20911700;28;20236;-70
2022/10/30 06:02:05;;;;;;;64.37;7.23;;;13.60;99.90;;;;;;20921042;28;20235;-69
2022/10/30 06:12:07;;;;;;;25.10;6.93;;;13.60;99.90;;;;;;20926458;28;20318;-70
2022/10/30 06:22:09;;;;;;;30.27;6.33;;;13.50;99.90;;;;;;20926025;28;20205;-70
2022/10/30 06:32:11;;;;;;;20.27;6.60;;;13.40;99.90;;;;;;20924938;28;20244;-70
2022/10/30 06:42:12;;;;;;;36.57;6.90;;;13.40;99.90;;;;;;20924055;28;20204;-70
2022/10/30 06:52:14;;;;;;;24.03;6.20;;;13.50;99.90;;;;;;20923629;28;20237;-69
2022/10/30 07:02:16;;;;;;;57.13;6.80;;;13.50;99.90;;;;;;20922396;28;20240;-69
2022/10/30 07:12:18;;;;;;;11.07;6.50;;;13.50;99.90;;;;;;20921049;28;20239;-69
2022/10/30 07:22:19;;;;;;;16.90;7.00;;;13.50;99.90;;;;;;20921194;28;20209;-70
2022/10/30 07:32:21;;;;;;;22.93;7.10;;;13.50;99.90;;;;;;20920081;28;20293;-70
2022/10/30 07:42:23;;;;;;;56.17;7.50;;;13.60;99.90;;;;;;20919238;28;20279;-69
2022/10/30 07:52:24;;;;;;;63.13;7.57;;;13.60;99.90;;;;;;20918777;28;20701;-69
2022/10/30 08:02:26;;;;;;;30.23;7.73;;;13.50;99.90;;;;;;20917531;28;20235;-69
2022/10/30 08:12:28;;;;;;;29.57;7.30;;;13.40;99.90;;;;;;20916719;28;20294;-69
2022/10/30 08:22:30;;;;;;;26.87;7.30;;;13.40;99.90;;;;;;20915811;28;20666;-69
2022/10/30 08:32:32;;;;;;;13.50;6.90;;;13.60;99.90;;;;;;20915229;28;20240;-70
2022/10/30 08:42:33;;;;;;;41.80;9.10;;;13.60;99.90;;;;;;20913688;28;20615;-71
2022/10/30 08:52:35;;;;;;;64.53;9.13;;;13.60;99.90;;;;;;20914056;28;20231;-69
2022/10/30 09:02:40;;;;;;;47.40;8.37;;;13.60;99.90;;;;;;20913111;28;20240;-70
2022/10/30 09:12:42;;;;;;;13.37;9.20;;;13.80;99.90;;;;;;20912557;28;20235;-70
2022/10/30 09:22:43;;;;;;;12.53;8.20;;;13.80;99.90;;;;;;20912271;28;20200;-72
2022/10/30 09:32:52;;;;;;;9.60;7.67;;;13.90;99.90;;;;;;20915160;28;20573;-72
2022/10/30 09:43:08;;;;;;;9.97;7.70;;;14.10;99.90;;;;;;20928069;28;20376;-72
2022/10/30 09:53:24;;;;;;;21.53;9.50;;;14.30;99.90;;;;;;20927722;28;20239;-72
2022/10/30 10:03:39;;;;;;;13.13;8.30;;;14.40;99.90;;;;;;20927044;28;20702;-72
2022/10/30 10:13:57;;;;;;;9.10;7.77;;;14.50;99.90;;;;;;20926359;28;20308;-71
2022/10/30 10:24:03;;;;;;;11.83;8.77;;;14.60;99.90;;;;;;20925683;28;20607;-72
2022/10/30 10:34:16;;;;;;;11.60;8.73;;;14.70;99.90;;;;;;20924616;28;20239;-73
2022/10/30 10:44:55;;;;;;;11.70;8.63;;;14.80;99.90;;;;;;20922980;28;20207;-73
2022/10/30 10:55:13;;;;;;;14.27;10.10;;;15.00;99.90;;;;;;20923448;28;20236;-72
2022/10/30 11:05:51;;;;;;;11.87;8.87;;;15.20;99.90;;;;;;20922006;28;20269;-73
2022/10/30 11:16:03;;;;;;;14.97;11.27;;;15.50;99.90;;;;;;20921421;28;20716;-73
2022/10/30 11:26:17;;;;;;;15.63;11.63;;;15.50;99.90;;;;;;20920489;28;20212;-71
2022/10/30 11:36:23;;;;;;;13.30;10.90;;;15.90;99.90;;;;;;20920041;28;20647;-72
2022/10/30 11:46:25;;;;;;;16.97;10.70;;;16.70;99.90;;;;;;20918453;28;20224;-72
2022/10/30 11:56:29;;;;;;;15.43;10.40;;;16.80;99.90;;;;;;20917550;28;20212;-73
2022/10/30 12:06:31;;;;;;;9.53;8.13;;;17.20;99.90;;;;;;20917493;28;20623;-73
2022/10/30 12:16:32;;;;;;;14.87;7.80;;;17.50;99.90;;;;;;20916325;28;20261;-73
2022/10/30 12:26:36;;;;;;;13.70;8.50;;;17.80;99.90;;;;;;20915526;28;20239;-73
2022/10/30 12:36:50;;;;;;;11.97;7.83;;;18.20;99.90;;;;;;20915480;28;20683;-73
2022/10/30 12:47:02;;;;;;;11.70;7.60;;;18.20;99.90;;;;;;20914605;28;20235;-73
2022/10/30 12:57:12;;;;;;;17.83;7.53;;;18.50;99.90;;;;;;20913823;28;20653;-73
2022/10/30 13:07:25;;;;;;;11.10;7.20;;;18.70;99.90;;;;;;20912592;28;20249;-73
2022/10/30 13:17:28;;;;;;;11.50;6.73;;;18.90;99.90;;;;;;20912941;28;20646;-73
2022/10/30 13:27:44;;;;;;;9.53;6.73;;;19.00;99.90;;;;;;20912153;28;20235;-73
2022/10/30 13:38:12;;;;;;;12.17;7.37;;;19.10;99.90;;;;;;20912233;28;20207;-72
2022/10/30 13:48:32;;;;;;;13.83;6.70;;;19.20;99.90;;;;;;20911204;28;20232;-73
2022/10/30 13:58:45;;;;;;;10.03;7.20;;;19.30;99.90;;;;;;20910967;28;20214;-71
2022/10/30 14:09:25;;;;;;;12.60;5.73;;;19.40;99.90;;;;;;20910825;28;20244;-70
2022/10/30 14:19:27;;;;;;;10.13;6.63;;;19.40;99.90;;;;;;20903122;28;20286;-70
2022/10/30 14:29:32;;;;;;;11.43;7.00;;;19.50;99.90;;;;;;20924971;28;20231;-71
2022/10/30 14:39:42;;;;;;;17.10;6.67;;;19.50;99.90;;;;;;20924682;28;20204;-70
2022/10/30 14:49:54;;;;;;;13.10;6.47;;;19.70;99.90;;;;;;20923870;28;20286;-71
2022/10/30 15:00:21;;;;;;;13.97;6.97;;;19.50;99.90;;;;;;20922825;28;20206;-71
2022/10/30 15:10:35;;;;;;;12.10;7.13;;;19.40;99.90;;;;;;20921839;28;20250;-70
2022/10/30 15:20:38;;;;;;;12.73;7.40;;;19.10;99.90;;;;;;20921586;28;20204;-71
2022/10/30 15:31:16;;;;;;;15.53;7.63;;;18.80;99.90;;;;;;20919594;28;20238;-72
2022/10/30 15:41:18;;;;;;;18.77;8.00;;;18.50;99.90;;;;;;20919619;28;20217;-71
2022/10/30 15:51:22;;;;;;;16.50;8.03;;;18.30;99.90;;;;;;20919445;28;20257;-71
2022/10/30 16:01:26;;;;;;;19.50;8.23;;;18.00;99.90;;;;;;20918850;28;20211;-71
2022/10/30 16:11:29;;;;;;;20.83;8.70;;;17.50;99.90;;;;;;20917582;28;20259;-71
2022/10/30 16:21:31;;;;;;;18.80;8.63;;;17.50;99.90;;;;;;20916771;28;20211;-71
2022/10/30 16:31:35;;;;;;;29.17;15.47;;;17.30;99.90;;;;;;20915927;28;20699;-72
2022/10/30 16:41:38;;;;;;;20.60;11.47;;;17.20;99.90;;;;;;20913985;28;20210;-73
2022/10/30 16:51:41;;;;;;;61.13;29.00;;;16.90;99.90;;;;;;20914613;28;20274;-73
2022/10/30 17:01:43;;;;;;;30.87;15.50;;;16.80;99.90;;;;;;20913465;28;20270;-71
2022/10/30 17:12:00;;;;;;;19.57;12.30;;;16.60;99.90;;;;;;20913760;28;20253;-72
2022/10/30 17:22:06;;;;;;;26.77;12.17;;;16.40;99.90;;;;;;20913285;28;20205;-72
2022/10/30 17:32:19;;;;;;;24.50;15.20;;;16.30;99.90;;;;;;20912374;28;20634;-70
2022/10/30 17:42:21;;;;;;;25.00;14.93;;;16.10;99.90;;;;;;20911827;28;20206;-70
2022/10/30 17:52:22;;;;;;;25.20;12.27;;;15.90;99.90;;;;;;20912865;28;20235;-72
2022/10/30 18:02:24;;;;;;;33.37;13.87;;;15.80;99.90;;;;;;20927233;28;20722;-70
2022/10/30 18:12:26;;;;;;;22.53;14.80;;;15.70;99.90;;;;;;20926672;28;20240;-71
2022/10/30 18:22:27;;;;;;;21.73;12.90;;;15.50;99.90;;;;;;20926346;28;20573;-71
2022/10/30 18:32:29;;;;;;;29.23;17.00;;;15.50;99.90;;;;;;20925115;28;20238;-71
2022/10/30 18:42:31;;;;;;;23.27;11.70;;;15.30;99.90;;;;;;20924467;28;20208;-70
2022/10/30 18:52:33;;;;;;;22.77;13.10;;;15.20;99.90;;;;;;20923982;28;20289;-72
2022/10/30 19:02:34;;;;;;;21.87;10.17;;;15.10;99.90;;;;;;20922862;28;20712;-72
2022/10/30 19:12:36;;;;;;;25.70;9.67;;;15.00;99.90;;;;;;20918578;28;20253;-71
2022/10/30 19:22:42;;;;;;;23.43;11.50;;;15.10;99.90;;;;;;20920865;28;20208;-71
2022/10/30 19:32:45;;;;;;;21.07;12.27;;;15.00;99.90;;;;;;20942598;28;20238;-73
2022/10/30 19:42:47;;;;;;;20.80;11.60;;;14.90;99.90;;;;;;20967041;28;20724;-74
2022/10/30 19:52:50;;;;;;;23.67;11.70;;;14.80;99.90;;;;;;20944476;28;20279;-74
2022/10/30 20:02:54;;;;;;;25.53;12.10;;;14.80;99.90;;;;;;20919343;28;20243;-70
2022/10/30 20:12:56;;;;;;;24.37;11.43;;;14.70;99.90;;;;;;20835205;28;20703;-73
2022/10/30 20:22:58;;;;;;;19.87;11.23;;;14.60;99.90;;;;;;20834827;28;20209;-72
2022/10/30 20:33:00;;;;;;;18.73;11.13;;;14.60;99.90;;;;;;20833464;28;20240;-71
2022/10/30 20:43:02;;;;;;;20.20;11.27;;;14.50;99.90;;;;;;20931756;28;20203;-70
2022/10/30 20:53:05;;;;;;;19.53;11.07;;;14.40;99.90;;;;;;20997586;28;20243;-72
2022/10/30 21:03:07;;;;;;;23.90;11.70;;;14.30;99.90;;;;;;20995950;28;20231;-69
2022/10/30 21:13:09;;;;;;;21.10;11.63;;;14.30;99.90;;;;;;20996085;28;20233;-68
2022/10/30 21:23:12;;;;;;;24.40;12.60;;;14.20;99.90;;;;;;20995920;28;20211;-71
2022/10/30 21:33:14;;;;;;;26.77;13.60;;;14.10;99.90;;;;;;20994538;28;20242;-73
2022/10/30 21:43:15;;;;;;;110.90;15.60;;;14.10;99.90;;;;;;20993917;28;20249;-67
2022/10/30 21:53:17;;;;;;;94.80;14.70;;;14.00;99.90;;;;;;20994380;28;20242;-69
2022/10/30 22:03:19;;;;;;;28.87;13.47;;;13.90;99.90;;;;;;20993810;28;20227;-69
2022/10/30 22:13:21;;;;;;;30.00;12.70;;;13.80;99.90;;;;;;20993639;28;20630;-68
2022/10/30 22:23:22;;;;;;;51.03;12.80;;;13.90;99.90;;;;;;20993480;28;20222;-70
2022/10/30 22:33:24;;;;;;;20.37;11.47;;;13.80;99.90;;;;;;20992764;28;20690;-67
2022/10/30 22:43:27;;;;;;;35.63;10.80;;;13.80;99.90;;;;;;20999208;28;20214;-68
2022/10/30 22:53:30;;;;;;;17.77;11.07;;;13.80;99.90;;;;;;21006418;28;20239;-67
2022/10/30 23:03:32;;;;;;;25.63;10.60;;;13.80;99.90;;;;;;21005702;28;20288;-67
2022/10/30 23:13:34;;;;;;;30.97;10.23;;;13.70;99.90;;;;;;21004938;28;20231;-69
2022/10/30 23:23:37;;;;;;;28.20;9.20;;;13.70;99.90;;;;;;21004406;28;20341;-71
2022/10/30 23:33:39;;;;;;;34.50;10.33;;;13.70;99.90;;;;;;21003592;28;20242;-67
2022/10/30 23:43:40;;;;;;;26.27;10.40;;;13.50;99.90;;;;;;21002683;28;20545;-74
2022/10/30 23:53:42;;;;;;;14.30;9.70;;;13.50;99.90;;;;;;21001222;28;20237;-75
